Time;durP1;ratioP1;P1;durP2;ratioP2;P2;SDS_P1;SDS_P2;PMS_P1;PMS_P2;Temp;Humidity;BMP_temperature;BMP_pressure;BME280_temperature;BME280_humidity;BME280_pressure;Samples;Min_cycle;Max_cycle;Signal;HPM_P1;HPM_P2
2021/03/08 00:00:17;;;;;;;15.23;9.48;;;;;;;1.24;61.48;100979.53;5010837;28;20080;-70
2021/03/08 00:02:43;;;;;;;13.50;8.50;;;;;;;1.33;61.03;100975.59;5011046;28;20317;-70
2021/03/08 00:05:09;;;;;;;12.13;8.52;;;;;;;1.36;61.22;100978.03;5012968;28;20036;-70
2021/03/08 00:07:34;;;;;;;12.80;8.70;;;;;;;1.46;60.98;100984.47;5011398;28;20446;-71
2021/03/08 00:10:00;;;;;;;15.23;8.98;;;;;;;1.58;60.06;100978.56;5011171;28;20080;-70
2021/03/08 00:12:25;;;;;;;12.35;8.25;;;;;;;1.56;60.36;100975.22;5010250;28;20923;-70
2021/03/08 00:14:50;;;;;;;11.85;8.18;;;;;;;1.55;60.62;100977.88;5011403;28;20498;-70
2021/03/08 00:17:16;;;;;;;14.52;8.77;;;;;;;1.52;60.51;100978.91;5011412;28;20080;-70
2021/03/08 00:19:42;;;;;;;14.18;9.50;;;;;;;1.52;60.45;100983.28;5010492;28;20045;-70
2021/03/08 00:22:07;;;;;;;12.50;9.23;;;;;;;1.54;60.72;100986.66;5009891;28;20030;-71
2021/03/08 00:24:32;;;;;;;13.00;8.25;;;;;;;1.54;60.12;100992.69;5011020;28;20045;-70
2021/03/08 00:26:58;;;;;;;11.68;8.10;;;;;;;1.45;60.40;100995.78;5009164;28;20499;-70
2021/03/08 00:29:24;;;;;;;11.43;8.00;;;;;;;1.35;60.44;100992.00;5009074;28;20036;-70
2021/03/08 00:31:50;;;;;;;15.35;9.30;;;;;;;1.28;59.88;100991.47;5003580;28;20096;-70
2021/03/08 00:34:15;;;;;;;15.13;9.00;;;;;;;1.22;60.75;100995.25;5006390;28;20494;-70
2021/03/08 00:36:40;;;;;;;12.38;8.60;;;;;;;1.12;60.83;100996.66;5011792;28;20548;-70
2021/03/08 00:39:06;;;;;;;9.88;6.57;;;;;;;1.02;60.80;101001.47;5010762;28;20557;-70
2021/03/08 00:41:31;;;;;;;8.55;5.88;;;;;;;0.95;62.17;101009.69;5013760;28;20095;-70
2021/03/08 00:43:56;;;;;;;10.38;7.45;;;;;;;0.94;61.06;101008.84;5014025;28;20034;-70
2021/03/08 00:46:21;;;;;;;11.35;7.38;;;;;;;0.91;61.21;101003.81;5010959;28;20450;-70
2021/03/08 00:48:47;;;;;;;7.55;5.88;;;;;;;0.79;62.33;101000.06;5011531;28;20034;-70
2021/03/08 00:51:12;;;;;;;10.10;6.03;;;;;;;0.67;62.19;101003.28;5011614;28;20030;-70
2021/03/08 00:53:37;;;;;;;8.57;5.88;;;;;;;0.51;63.51;101003.19;5011682;28;20053;-70
2021/03/08 00:56:03;;;;;;;7.95;5.45;;;;;;;0.38;64.21;100999.50;5011340;28;20367;-71
2021/03/08 00:58:28;;;;;;;9.90;6.80;;;;;;;0.14;65.28;100993.72;5011330;28;20112;-70
2021/03/08 01:00:54;;;;;;;9.20;6.25;;;;;;;0.12;65.11;100992.94;5011585;28;20034;-70
2021/03/08 01:03:19;;;;;;;10.02;7.07;;;;;;;-0.05;66.65;100996.34;5012074;28;20491;-70
2021/03/08 01:05:44;;;;;;;10.63;7.10;;;;;;;-0.19;66.34;100994.41;5012318;28;20084;-70
2021/03/08 01:08:09;;;;;;;9.23;6.25;;;;;;;-0.32;66.68;100988.94;5011455;28;20037;-70
2021/03/08 01:10:35;;;;;;;8.88;6.53;;;;;;;-0.45;66.86;100991.25;5013437;28;20030;-70
2021/03/08 01:13:00;;;;;;;9.85;6.72;;;;;;;-0.41;66.60;100991.09;5016116;28;20045;-70
2021/03/08 01:15:26;;;;;;;10.57;6.30;;;;;;;-0.54;68.34;100990.84;5020345;28;20458;-70
2021/03/08 01:17:52;;;;;;;9.30;6.85;;;;;;;-0.47;64.87;100990.47;5023291;28;20462;-70
2021/03/08 01:20:19;;;;;;;9.50;6.82;;;;;;;-0.48;65.81;100994.00;5021965;28;20406;-70
2021/03/08 01:22:45;;;;;;;9.27;6.80;;;;;;;-0.57;68.87;100993.53;5023519;28;20653;-70
2021/03/08 01:25:16;;;;;;;11.02;6.97;;;;;;;-0.65;68.93;100979.16;5023409;28;20030;-70
2021/03/08 01:27:42;;;;;;;;;;;;;;;-0.78;68.77;100982.38;5023856;28;20184;-70
2021/03/08 01:30:13;;;;;;;10.18;6.93;;;;;;;-0.86;67.31;100983.56;5021953;28;20178;-71
2021/03/08 01:32:39;;;;;;;12.55;9.00;;;;;;;-1.04;69.89;100973.16;5022839;28;20069;-70
2021/03/08 01:35:05;;;;;;;11.48;7.97;;;;;;;-0.98;67.31;100980.66;5022822;28;20394;-70
2021/03/08 01:37:31;;;;;;;12.75;7.75;;;;;;;-1.10;68.90;100979.41;5023995;28;20038;-70
2021/03/08 01:39:57;;;;;;;12.50;8.73;;;;;;;-1.17;70.64;100988.38;5023375;28;20156;-70
2021/03/08 01:42:22;;;;;;;11.02;7.05;;;;;;;-1.16;69.81;100974.50;5016662;28;20026;-70
2021/03/08 01:44:48;;;;;;;8.98;6.40;;;;;;;-1.17;70.78;100968.50;5011504;28;20049;-70
2021/03/08 01:47:14;;;;;;;13.77;8.35;;;;;;;-1.05;68.68;100977.47;5009365;28;20034;-70
2021/03/08 01:49:40;;;;;;;11.13;8.00;;;;;;;-0.94;67.97;100979.59;5010076;28;20049;-70
2021/03/08 01:52:07;;;;;;;12.65;8.50;;;;;;;-1.11;70.44;100980.34;5010474;28;20046;-70
2021/03/08 01:54:33;;;;;;;11.23;8.18;;;;;;;-1.12;68.64;100976.91;5010103;28;20042;-70
2021/03/08 01:56:58;;;;;;;11.90;8.43;;;;;;;-1.14;69.77;100983.09;5008335;28;20561;-70
2021/03/08 01:59:23;;;;;;;16.13;9.52;;;;;;;-1.03;68.84;100977.41;5009966;28;20069;-70
2021/03/08 02:01:49;;;;;;;10.45;7.20;;;;;;;-1.00;69.85;100972.94;5011649;28;20034;-70
2021/03/08 02:04:14;;;;;;;12.38;7.93;;;;;;;-0.95;68.47;100981.38;5013277;28;20057;-70
2021/03/08 02:06:40;;;;;;;10.60;7.32;;;;;;;-0.95;68.54;100972.75;5013315;28;20034;-70
2021/03/08 02:09:06;;;;;;;10.38;6.90;;;;;;;-0.93;67.94;100971.78;5011798;28;20137;-70
2021/03/08 02:11:36;;;;;;;10.98;7.00;;;;;;;-0.95;69.82;100976.19;5011439;28;20042;-70
2021/03/08 02:14:37;;;;;;;10.32;6.53;;;;;;;-0.97;69.92;100975.41;5014095;28;20483;-70
2021/03/08 02:17:10;;;;;;;9.25;5.95;;;;;;;-0.97;68.05;100974.56;5010579;28;20034;-70
2021/03/08 02:20:04;;;;;;;11.95;8.05;;;;;;;-1.13;70.66;100972.63;5013766;28;20108;-70
2021/03/08 02:22:54;;;;;;;10.52;6.78;;;;;;;-1.13;68.35;100975.22;5013289;28;20144;-70
2021/03/08 02:25:53;;;;;;;10.43;7.00;;;;;;;-1.14;71.66;100980.47;4995661;28;20038;-70
2021/03/08 02:28:46;;;;;;;11.73;7.63;;;;;;;-1.09;68.73;100962.97;5013062;28;20041;-70
2021/03/08 02:31:17;;;;;;;13.50;7.90;;;;;;;-1.12;70.01;100969.13;5013287;28;20037;-69
2021/03/08 02:33:51;;;;;;;11.82;7.18;;;;;;;-1.22;71.50;100964.38;5013022;28;20406;-70
2021/03/08 02:36:19;;;;;;;9.65;6.40;;;;;;;-1.37;71.88;100961.53;5012726;28;20041;-70
2021/03/08 02:38:51;;;;;;;15.60;8.35;;;;;;;-1.53;72.03;100961.31;5011654;28;20281;-70
2021/03/08 02:41:20;;;;;;;9.23;7.03;;;;;;;-1.60;72.16;100961.66;5011361;28;20041;-70
2021/03/08 02:43:51;;;;;;;9.63;6.93;;;;;;;-1.62;71.85;100961.72;5012815;28;20049;-70
2021/03/08 02:46:19;;;;;;;;;;;;;;;-1.56;70.67;100960.63;5012711;28;20513;-70
2021/03/08 02:48:46;;;;;;;10.60;6.60;;;;;;;-1.56;73.91;100961.47;5012345;28;19925;-70
2021/03/08 02:51:13;;;;;;;11.52;6.72;;;;;;;-1.52;72.46;100957.00;5012226;28;20048;-70
2021/03/08 02:53:42;;;;;;;8.45;5.88;;;;;;;-1.56;70.94;100955.44;5012717;28;20060;-70
2021/03/08 02:56:14;;;;;;;10.27;7.65;;;;;;;-1.65;72.25;100956.66;5011578;28;20087;-70
2021/03/08 02:58:42;;;;;;;10.13;6.60;;;;;;;-1.61;74.84;100953.03;5012021;28;20034;-70
2021/03/08 03:01:09;;;;;;;9.13;6.78;;;;;;;-1.65;71.78;100964.44;5010832;28;20514;-70
2021/03/08 03:03:38;;;;;;;10.52;7.43;;;;;;;-1.59;73.67;100956.41;5012378;28;20407;-70
2021/03/08 03:06:04;;;;;;;8.43;6.30;;;;;;;-1.56;73.55;100958.03;5011412;28;20026;-70
2021/03/08 03:08:32;;;;;;;11.07;7.60;;;;;;;-1.67;72.34;100947.25;5013521;28;20503;-70
2021/03/08 03:10:58;;;;;;;10.40;7.13;;;;;;;-1.61;71.07;100952.19;5011761;28;20033;-70
2021/03/08 03:13:24;;;;;;;8.77;5.50;;;;;;;-1.60;72.35;100959.06;5011803;28;20100;-70
2021/03/08 03:15:51;;;;;;;12.68;8.25;;;;;;;-1.67;72.90;100958.47;5010880;28;20441;-70
2021/03/08 03:18:17;;;;;;;14.40;9.30;;;;;;;-1.80;73.38;100959.88;5011529;28;20041;-70
2021/03/08 03:20:44;;;;;;;12.25;7.40;;;;;;;-1.86;73.14;100958.41;5012021;28;20119;-70
2021/03/08 03:23:10;;;;;;;12.27;7.88;;;;;;;-1.81;72.95;100953.00;5012664;28;20037;-70
2021/03/08 03:25:37;;;;;;;9.90;6.90;;;;;;;-1.78;73.66;100955.47;5012196;28;20053;-70
2021/03/08 03:28:03;;;;;;;10.20;7.43;;;;;;;-1.84;73.45;100956.56;5011191;28;20030;-71
2021/03/08 03:30:31;;;;;;;11.80;7.47;;;;;;;-1.89;73.85;100955.91;5013244;28;20391;-70
2021/03/08 03:32:58;;;;;;;10.85;7.32;;;;;;;-1.96;72.86;100957.88;5010623;28;20044;-70
2021/03/08 03:35:26;;;;;;;10.50;7.53;;;;;;;-2.04;74.14;100959.94;5011171;28;20042;-70
2021/03/08 03:37:54;;;;;;;13.02;8.57;;;;;;;-2.16;74.73;100966.47;5010859;28;20117;-70
2021/03/08 03:40:20;;;;;;;12.55;8.95;;;;;;;-2.26;75.11;100966.88;5011263;28;20037;-70
2021/03/08 03:42:48;;;;;;;13.57;9.05;;;;;;;-2.18;75.14;100957.06;5010646;28;20080;-70
2021/03/08 03:45:15;;;;;;;14.82;9.07;;;;;;;-2.15;74.58;100970.72;5011072;28;20046;-70
2021/03/08 03:47:41;;;;;;;11.60;8.18;;;;;;;-2.04;74.46;100970.31;5011469;28;20431;-70
2021/03/08 03:50:12;;;;;;;16.05;10.23;;;;;;;-2.10;74.39;100967.13;5010656;28;20121;-70
2021/03/08 03:52:38;;;;;;;13.98;9.85;;;;;;;-2.20;74.86;100974.41;5010093;28;20346;-70
2021/03/08 03:55:06;;;;;;;11.93;7.97;;;;;;;-2.13;74.92;100988.81;5009707;28;20026;-70
2021/03/08 03:57:53;;;;;;;13.80;9.35;;;;;;;-2.16;74.15;100984.59;5011234;28;20096;-70
2021/03/08 04:00:23;;;;;;;13.35;9.07;;;;;;;-2.06;72.89;100989.41;5010295;28;20049;-70
2021/03/08 04:02:58;;;;;;;15.13;9.80;;;;;;;-2.03;73.15;100997.06;5011223;28;20406;-70
2021/03/08 04:05:24;;;;;;;11.82;7.68;;;;;;;-1.97;73.97;100996.84;5010377;28;20343;-70
2021/03/08 04:07:52;;;;;;;11.30;7.50;;;;;;;-1.93;72.91;100991.47;5010292;28;20510;-70
2021/03/08 04:10:19;;;;;;;9.23;6.82;;;;;;;-1.89;71.63;100989.59;5009626;28;20124;-70
2021/03/08 04:12:47;;;;;;;10.20;7.53;;;;;;;-1.99;73.37;100989.13;5010993;28;20030;-70
2021/03/08 04:15:15;;;;;;;9.43;6.47;;;;;;;-2.05;74.58;100993.69;5011641;28;20196;-70
2021/03/08 04:17:42;;;;;;;10.13;6.45;;;;;;;-2.03;74.71;100992.72;5011173;28;20058;-70
2021/03/08 04:20:15;;;;;;;10.48;7.80;;;;;;;-2.05;75.23;100996.28;5010712;28;20574;-70
2021/03/08 04:22:41;;;;;;;10.77;7.07;;;;;;;-2.13;73.62;101004.34;5011655;28;20041;-70
2021/03/08 04:25:08;;;;;;;11.88;8.48;;;;;;;-2.29;75.36;100996.31;5010501;28;20418;-70
2021/03/08 04:27:34;;;;;;;10.98;7.43;;;;;;;-2.38;74.33;101005.28;5011159;28;20498;-70
2021/03/08 04:30:01;;;;;;;9.85;7.18;;;;;;;-2.41;75.10;100996.78;5011260;28;20038;-70
2021/03/08 04:32:27;;;;;;;11.40;7.85;;;;;;;-2.50;75.12;101003.16;5009967;28;20049;-70
2021/03/08 04:34:54;;;;;;;13.60;9.15;;;;;;;-2.61;75.83;100995.78;5010468;28;20034;-70
2021/03/08 04:37:20;;;;;;;11.32;7.75;;;;;;;-2.63;75.70;101007.09;5010483;28;20403;-70
2021/03/08 04:39:46;;;;;;;12.63;8.30;;;;;;;-2.67;76.21;101003.78;5011172;28;20107;-70
2021/03/08 04:42:14;;;;;;;8.65;6.20;;;;;;;-2.65;75.28;100999.38;5010352;28;20398;-70
2021/03/08 04:44:42;;;;;;;7.88;6.05;;;;;;;-2.64;74.62;101002.81;5010598;28;20037;-70
2021/03/08 04:47:08;;;;;;;11.25;8.05;;;;;;;-2.68;76.32;100999.50;5010627;28;20030;-70
2021/03/08 04:49:35;;;;;;;10.15;7.00;;;;;;;-2.70;76.97;101003.88;5010429;28;20154;-70
2021/03/08 04:52:01;;;;;;;10.20;6.53;;;;;;;-2.69;75.78;101003.00;5010429;28;20534;-70
2021/03/08 04:54:27;;;;;;;9.27;6.50;;;;;;;-2.66;76.56;101002.03;5010574;28;20034;-70
2021/03/08 04:56:54;;;;;;;10.80;7.43;;;;;;;-2.52;76.87;101009.31;5010227;28;20034;-69
2021/03/08 04:59:19;;;;;;;11.10;7.88;;;;;;;-2.52;76.81;101007.56;5009667;28;20030;-70
2021/03/08 05:01:46;;;;;;;8.82;6.82;;;;;;;-2.47;75.84;101021.16;5010221;28;20445;-70
2021/03/08 05:04:13;;;;;;;10.45;7.13;;;;;;;-2.44;74.33;101023.63;5009704;28;20364;-70
2021/03/08 05:06:41;;;;;;;9.55;6.43;;;;;;;-2.46;76.97;101022.00;5010226;28;20120;-70
2021/03/08 05:09:09;;;;;;;9.40;6.57;;;;;;;-2.39;76.64;101021.72;5009755;28;20120;-69
2021/03/08 05:11:39;;;;;;;14.07;9.18;;;;;;;-2.43;75.33;101017.56;5010046;28;20033;-70
2021/03/08 05:14:08;;;;;;;12.15;8.13;;;;;;;-2.50;77.22;101017.84;5010413;28;20040;-71
2021/03/08 05:16:38;;;;;;;11.32;7.60;;;;;;;-2.62;75.87;101017.41;5008186;28;20037;-70
2021/03/08 05:19:04;;;;;;;9.77;6.83;;;;;;;-2.66;75.75;101026.16;5010034;28;20038;-70
2021/03/08 05:21:32;;;;;;;10.90;6.78;;;;;;;-2.73;76.87;101026.44;5008827;28;20038;-70
2021/03/08 05:23:57;;;;;;;12.27;7.68;;;;;;;-2.80;76.87;101020.63;5010179;28;20120;-69
2021/03/08 05:26:24;;;;;;;14.80;9.30;;;;;;;-2.88;77.37;101026.09;5010347;28;20048;-70
2021/03/08 05:28:50;;;;;;;9.75;6.80;;;;;;;-2.93;76.44;101020.25;5010060;28;20702;-70
2021/03/08 05:31:16;;;;;;;10.50;7.70;;;;;;;-2.95;78.40;101021.19;5010834;28;20026;-70
2021/03/08 05:33:43;;;;;;;10.85;7.10;;;;;;;-2.94;76.76;101028.88;5009744;28;20045;-70
2021/03/08 05:36:09;;;;;;;11.68;8.18;;;;;;;-2.91;79.19;101031.34;5009845;28;20034;-70
2021/03/08 05:38:35;;;;;;;12.82;8.93;;;;;;;-2.95;76.95;101032.38;5013839;28;20173;-70
2021/03/08 05:41:11;;;;;;;11.98;7.45;;;;;;;-3.03;77.16;101029.19;5013731;28;20030;-70
2021/03/08 05:43:37;;;;;;;13.63;8.13;;;;;;;-2.96;76.77;101038.44;5013531;28;20038;-70
2021/03/08 05:46:09;;;;;;;9.60;6.93;;;;;;;-2.93;76.81;101034.91;5012866;28;20034;-70
2021/03/08 05:48:41;;;;;;;13.40;8.50;;;;;;;-2.87;77.83;101038.13;5012936;28;20026;-70
2021/03/08 05:51:32;;;;;;;19.50;11.73;;;;;;;-2.87;76.34;101045.88;5013469;28;20400;-70
2021/03/08 05:54:00;;;;;;;14.30;9.45;;;;;;;-2.75;75.10;101054.13;5013111;28;20045;-70
2021/03/08 05:56:53;;;;;;;16.45;11.00;;;;;;;-2.64;74.58;101058.03;5012253;28;20038;-70
2021/03/08 06:00:00;;;;;;;15.43;10.35;;;;;;;-2.64;74.71;101060.63;5013052;28;20046;-70
2021/03/08 06:02:52;;;;;;;15.82;9.75;;;;;;;-2.61;75.26;101065.69;4985149;28;20414;-70
2021/03/08 06:05:23;;;;;;;14.70;9.35;;;;;;;-2.57;74.89;101061.25;5013408;28;20037;-70
2021/03/08 06:08:26;;;;;;;14.32;8.25;;;;;;;-2.71;77.90;101059.16;5013249;28;20387;-70
2021/03/08 06:11:05;;;;;;;18.35;10.48;;;;;;;-2.53;74.96;101067.97;4995665;28;20034;-70
2021/03/08 06:13:39;;;;;;;19.45;11.70;;;;;;;-2.42;74.95;101068.44;5002657;28;20073;-69
2021/03/08 06:16:09;;;;;;;18.80;12.30;;;;;;;-2.29;74.57;101074.03;5013090;28;20249;-70
2021/03/08 06:18:44;;;;;;;12.30;8.45;;;;;;;-2.34;75.47;101075.94;5014501;28;20052;-70
2021/03/08 06:21:10;;;;;;;13.75;9.25;;;;;;;-2.23;74.44;101070.38;5019331;28;20033;-70
2021/03/08 06:23:38;;;;;;;10.98;7.57;;;;;;;-2.21;76.44;101068.59;5014782;28;20053;-70
2021/03/08 06:26:04;;;;;;;11.00;7.93;;;;;;;-2.07;76.85;101070.63;5013757;28;20045;-70
2021/03/08 06:28:30;;;;;;;14.27;9.95;;;;;;;-2.06;75.68;101070.59;5012710;28;20030;-70
2021/03/08 06:30:56;;;;;;;12.57;8.35;;;;;;;-2.08;74.86;101069.78;5013535;28;20038;-70
2021/03/08 06:33:22;;;;;;;12.40;7.68;;;;;;;-1.89;75.98;101069.09;5013051;28;20092;-70
2021/03/08 06:35:49;;;;;;;11.77;8.07;;;;;;;-1.40;72.98;101075.81;5012000;28;20099;-70
2021/03/08 06:38:16;;;;;;;11.73;8.07;;;;;;;-1.01;71.51;101071.63;5012059;28;20042;-71
2021/03/08 06:40:41;;;;;;;9.70;6.45;;;;;;;-0.44;72.30;101088.22;5011554;28;20038;-70
2021/03/08 06:43:06;;;;;;;9.25;6.68;;;;;;;0.03;67.84;101082.66;5011900;28;20030;-70
2021/03/08 06:45:32;;;;;;;11.32;7.30;;;;;;;0.00;68.18;101080.19;5014324;28;20030;-74
2021/03/08 06:47:57;;;;;;;10.88;5.72;;;;;;;0.12;70.71;101084.81;5013111;28;20042;-70
2021/03/08 06:50:23;;;;;;;13.20;7.82;;;;;;;-0.02;67.56;101093.25;5013025;28;20046;-70
2021/03/08 06:52:49;;;;;;;9.82;6.63;;;;;;;-0.03;67.50;101088.13;5015663;28;20045;-70
2021/03/08 06:55:20;;;;;;;7.72;5.20;;;;;;;0.50;67.31;101087.38;5013790;28;20037;-70
2021/03/08 06:57:45;;;;;;;7.32;5.20;;;;;;;1.18;67.77;101084.06;5013931;28;20481;-70
2021/03/08 07:00:13;;;;;;;7.72;5.00;;;;;;;1.91;63.50;101085.41;5013985;28;20057;-71
2021/03/08 07:02:49;;;;;;;7.63;5.47;;;;;;;2.49;67.95;101086.59;5014003;28;20041;-70
2021/03/08 07:05:23;;;;;;;6.10;4.45;;;;;;;3.17;64.72;101098.38;5014390;28;20041;-70
2021/03/08 07:08:01;;;;;;;7.80;5.32;;;;;;;3.74;63.21;101100.22;5014822;28;20034;-70
2021/03/08 07:10:38;;;;;;;6.38;4.63;;;;;;;4.28;63.82;101105.59;5001211;28;20487;-71
2021/03/08 07:13:08;;;;;;;10.98;6.25;;;;;;;4.65;56.50;101098.84;4998769;28;20065;-71
2021/03/08 07:15:33;;;;;;;8.18;4.88;;;;;;;4.68;59.45;101097.81;5011170;28;20487;-71
2021/03/08 07:17:58;;;;;;;11.32;6.90;;;;;;;4.65;53.67;101105.88;5008843;28;20053;-71
2021/03/08 07:20:27;;;;;;;9.35;5.45;;;;;;;4.94;56.29;101111.00;5000084;28;20340;-71
2021/03/08 07:22:54;;;;;;;10.10;5.72;;;;;;;5.56;56.71;101112.97;5009071;28;20034;-71
2021/03/08 07:25:28;;;;;;;9.63;6.32;;;;;;;6.29;52.74;101118.34;5009835;28;20041;-70
2021/03/08 07:27:58;;;;;;;7.55;5.60;;;;;;;6.29;50.05;101112.22;5008185;28;20128;-71
2021/03/08 07:30:32;;;;;;;9.10;6.10;;;;;;;5.92;50.76;101112.19;5011000;28;20045;-71
2021/03/08 07:33:04;;;;;;;10.00;6.40;;;;;;;5.32;50.67;101106.63;5010091;28;20121;-69
2021/03/08 07:35:33;;;;;;;8.20;5.78;;;;;;;4.71;53.31;101113.31;5010636;28;20104;-70
2021/03/08 07:37:58;;;;;;;8.52;6.10;;;;;;;4.12;54.20;101117.94;5010667;28;20088;-69
2021/03/08 07:40:24;;;;;;;14.20;8.13;;;;;;;3.85;54.51;101112.66;5009763;28;20037;-70
2021/03/08 07:42:50;;;;;;;9.27;6.38;;;;;;;3.31;56.21;101110.66;5010832;28;20037;-69
2021/03/08 07:45:17;;;;;;;10.25;7.03;;;;;;;2.82;58.16;101114.34;5010685;28;20041;-70
2021/03/08 07:47:42;;;;;;;11.52;8.13;;;;;;;2.66;57.77;101113.53;5009733;28;20057;-69
2021/03/08 07:50:24;;;;;;;7.22;5.35;;;;;;;2.52;59.07;101122.13;5010383;28;20034;-70
2021/03/08 07:52:50;;;;;;;10.57;8.45;;;;;;;2.12;60.35;101121.69;5004786;28;20125;-70
2021/03/08 07:55:15;;;;;;;13.27;8.80;;;;;;;1.85;61.94;101121.41;5009561;28;20116;-70
2021/03/08 07:57:41;;;;;;;12.63;8.40;;;;;;;1.73;62.41;101117.69;4991297;28;20034;-69
2021/03/08 08:00:07;;;;;;;12.10;7.47;;;;;;;1.60;63.19;101121.88;5007165;28;20034;-71
2021/03/08 08:02:33;;;;;;;11.77;7.82;;;;;;;1.54;63.81;101125.63;5010684;28;20517;-70
2021/03/08 08:04:58;;;;;;;11.25;8.52;;;;;;;1.47;64.56;101119.03;5010828;28;20040;-70
2021/03/08 08:07:23;;;;;;;14.48;9.50;;;;;;;1.60;63.46;101121.88;5009827;28;20030;-69
2021/03/08 08:09:49;;;;;;;15.02;10.18;;;;;;;1.63;64.26;101124.31;5010439;28;20053;-69
2021/03/08 08:12:21;;;;;;;12.93;8.18;;;;;;;1.89;62.25;101122.94;5010656;28;20202;-69
2021/03/08 08:14:50;;;;;;;12.18;7.60;;;;;;;1.96;63.18;101126.91;5010621;28;20375;-70
2021/03/08 08:17:20;;;;;;;15.02;10.27;;;;;;;2.15;61.87;101121.53;5010646;28;20038;-70
2021/03/08 08:19:46;;;;;;;11.30;7.80;;;;;;;2.17;62.73;101126.66;5010094;28;20445;-70
2021/03/08 08:22:23;;;;;;;11.20;6.50;;;;;;;2.26;63.17;101121.78;5009768;28;20283;-70
2021/03/08 08:24:52;;;;;;;16.33;10.10;;;;;;;2.29;63.13;101126.03;5010355;28;20421;-70
2021/03/08 08:27:18;;;;;;;15.32;10.18;;;;;;;2.71;61.82;101128.00;5010180;28;20030;-70
2021/03/08 08:29:45;;;;;;;20.08;12.40;;;;;;;3.52;59.96;101130.28;5009888;28;20034;-70
2021/03/08 08:32:10;;;;;;;14.23;8.35;;;;;;;4.06;58.24;101131.44;5007528;28;20428;-70
2021/03/08 08:34:41;;;;;;;13.50;8.93;;;;;;;4.59;55.50;101129.81;4990480;28;20030;-72
2021/03/08 08:37:15;;;;;;;8.52;6.47;;;;;;;5.64;53.56;101127.22;4995595;28;20030;-70
2021/03/08 08:40:03;;;;;;;11.32;8.10;;;;;;;6.50;51.68;101128.25;5010196;28;20045;-70
2021/03/08 08:42:30;;;;;;;9.75;7.45;;;;;;;7.22;50.47;101125.56;5009403;28;20042;-71
2021/03/08 08:44:57;;;;;;;7.53;6.72;;;;;;;7.53;49.54;101125.88;5009906;28;20065;-70
2021/03/08 08:47:33;;;;;;;8.15;6.18;;;;;;;7.73;46.86;101122.56;5009508;28;20492;-70
2021/03/08 08:50:05;;;;;;;9.07;5.50;;;;;;;8.58;47.52;101129.06;5010056;28;20044;-70
2021/03/08 08:52:51;;;;;;;7.32;4.90;;;;;;;9.16;43.55;101124.31;5009561;28;20041;-71
2021/03/08 08:55:20;;;;;;;6.45;5.25;;;;;;;10.23;44.24;101122.22;5009993;28;20133;-70
2021/03/08 08:58:18;;;;;;;8.23;6.15;;;;;;;10.01;40.73;101128.53;5009764;28;20038;-70
2021/03/08 09:01:03;;;;;;;5.30;4.30;;;;;;;9.97;41.92;101130.59;5009535;28;20557;-71
2021/03/08 09:03:59;;;;;;;5.70;4.75;;;;;;;10.88;40.23;101125.25;5009558;28;20049;-70
2021/03/08 09:06:43;;;;;;;6.55;4.80;;;;;;;11.18;39.47;101126.09;5009463;28;21585;-70
2021/03/08 09:09:28;;;;;;;5.20;4.50;;;;;;;10.77;38.23;101128.88;5009595;28;20058;-70
2021/03/08 09:12:00;;;;;;;7.75;5.93;;;;;;;11.30;39.17;101126.75;5008792;28;20403;-70
2021/03/08 09:14:47;;;;;;;10.30;6.10;;;;;;;12.18;38.40;101124.69;5009113;28;20045;-70
2021/03/08 09:17:40;;;;;;;6.57;4.45;;;;;;;12.57;37.86;101122.63;5009318;28;20056;-70
2021/03/08 09:20:06;;;;;;;7.93;5.35;;;;;;;12.57;36.66;101120.00;5008896;28;20034;-70
2021/03/08 09:22:34;;;;;;;9.48;5.53;;;;;;;12.28;36.29;101130.78;5009446;28;20337;-71
2021/03/08 09:25:00;;;;;;;11.60;7.82;;;;;;;12.87;36.74;101132.06;5008665;28;20033;-71
2021/03/08 09:27:27;;;;;;;8.27;6.00;;;;;;;13.00;36.19;101131.66;5008042;28;20046;-70
2021/03/08 09:29:54;;;;;;;7.70;6.03;;;;;;;12.50;36.37;101132.19;5009698;28;20034;-70
2021/03/08 09:32:19;;;;;;;8.48;6.15;;;;;;;11.67;36.09;101125.00;5008376;28;20589;-71
2021/03/08 09:34:45;;;;;;;6.82;5.78;;;;;;;12.62;36.38;101125.66;5009482;28;20120;-70
2021/03/08 09:37:11;;;;;;;6.65;5.35;;;;;;;13.25;35.46;101126.56;5008619;28;20058;-70
2021/03/08 09:39:51;;;;;;;7.97;6.57;;;;;;;12.10;35.98;101128.91;5009617;28;20026;-70
2021/03/08 09:42:17;;;;;;;6.88;5.40;;;;;;;13.14;35.44;101122.34;5007428;28;20052;-71
2021/03/08 09:44:43;;;;;;;6.85;5.00;;;;;;;12.91;34.69;101130.75;5009386;28;20038;-70
2021/03/08 09:47:09;;;;;;;6.47;4.88;;;;;;;12.92;35.14;101121.00;4998519;28;20042;-70
2021/03/08 09:49:52;;;;;;;9.10;5.85;;;;;;;13.35;35.98;101124.69;4992419;28;20034;-71
2021/03/08 09:52:53;;;;;;;8.38;5.97;;;;;;;11.84;36.18;101118.09;5008658;28;20066;-70
2021/03/08 09:55:25;;;;;;;7.45;5.63;;;;;;;12.30;36.25;101113.75;4976790;28;20038;-71
2021/03/08 09:57:51;;;;;;;6.97;5.75;;;;;;;10.59;39.47;101114.66;5008905;28;20026;-70
2021/03/08 10:00:19;;;;;;;8.30;5.72;;;;;;;10.95;38.18;101110.50;5008988;28;20112;-71
2021/03/08 10:02:45;;;;;;;7.85;6.03;;;;;;;10.68;39.78;101107.69;5007978;28;20034;-70
2021/03/08 10:05:13;;;;;;;8.38;6.13;;;;;;;9.54;41.71;101102.59;5009655;28;20044;-71
2021/03/08 10:07:54;;;;;;;8.48;6.03;;;;;;;9.80;41.68;101104.81;5009169;28;20038;-70
2021/03/08 10:10:22;;;;;;;8.98;6.80;;;;;;;9.45;41.79;101102.53;4990752;28;20388;-70
2021/03/08 10:13:01;;;;;;;7.82;5.90;;;;;;;9.07;41.99;101102.16;4995535;28;20038;-70
2021/03/08 10:15:36;;;;;;;8.60;6.05;;;;;;;8.59;43.82;101099.97;5009138;28;20038;-70
2021/03/08 10:18:02;;;;;;;9.00;5.53;;;;;;;8.62;44.04;101107.63;5001172;28;20450;-70
2021/03/08 10:20:28;;;;;;;9.35;6.40;;;;;;;8.81;43.82;101087.66;5006908;28;20030;-70
2021/03/08 10:22:54;;;;;;;10.25;7.13;;;;;;;9.10;41.93;101096.63;5010242;28;20054;-70
2021/03/08 10:25:32;;;;;;;9.73;5.82;;;;;;;8.64;42.86;101097.78;5011387;28;20380;-70
2021/03/08 10:28:03;;;;;;;9.75;6.25;;;;;;;8.48;43.53;101100.81;5009189;28;20026;-70
2021/03/08 10:30:32;;;;;;;9.00;5.32;;;;;;;8.39;43.80;101098.06;5003633;28;20388;-70
2021/03/08 10:33:03;;;;;;;8.93;6.07;;;;;;;8.48;44.24;101097.34;5001553;28;20037;-70
2021/03/08 10:35:53;;;;;;;9.85;6.68;;;;;;;8.49;43.17;101091.16;5013072;28;20060;-70
2021/03/08 10:38:33;;;;;;;8.25;5.70;;;;;;;7.63;48.43;101096.09;5011748;28;20530;-71
2021/03/08 10:41:04;;;;;;;10.80;7.43;;;;;;;7.81;45.53;101095.63;5013574;28;20026;-70
2021/03/08 10:43:30;;;;;;;11.50;7.28;;;;;;;7.92;46.04;101094.81;5009657;28;20038;-70
2021/03/08 10:45:59;;;;;;;10.05;6.90;;;;;;;7.79;46.20;101089.63;5010778;28;20399;-70
2021/03/08 10:48:25;;;;;;;9.95;7.07;;;;;;;8.00;45.87;101092.38;5011071;28;20044;-69
2021/03/08 10:50:53;;;;;;;10.75;7.07;;;;;;;7.84;46.44;101088.34;5011828;28;20061;-70
2021/03/08 10:53:20;;;;;;;10.80;7.32;;;;;;;7.71;49.16;101082.34;5012392;28;20030;-70
2021/03/08 10:55:46;;;;;;;9.80;6.35;;;;;;;7.54;49.26;101080.19;5012121;28;20037;-70
2021/03/08 10:58:13;;;;;;;8.65;5.95;;;;;;;7.72;48.39;101073.47;5011042;28;20042;-70
2021/03/08 11:00:40;;;;;;;10.93;7.05;;;;;;;7.81;47.11;101078.03;5011713;28;20037;-70
2021/03/08 11:03:06;;;;;;;9.68;5.75;;;;;;;7.79;47.68;101061.50;5012258;28;20454;-70
2021/03/08 11:05:32;;;;;;;10.30;7.50;;;;;;;7.86;47.09;101067.13;5011765;28;20065;-70
2021/03/08 11:08:00;;;;;;;10.48;6.30;;;;;;;8.05;45.27;101063.88;5011622;28;20128;-70
2021/03/08 11:10:37;;;;;;;11.57;7.05;;;;;;;7.89;47.30;101064.28;5011317;28;20100;-70
2021/03/08 11:13:08;;;;;;;14.38;7.03;;;;;;;7.98;45.71;101060.91;5012173;28;20034;-70
2021/03/08 11:15:36;;;;;;;7.47;4.38;;;;;;;7.86;46.62;101054.84;5013555;28;20038;-70
2021/03/08 11:18:03;;;;;;;8.93;5.47;;;;;;;7.95;46.04;101050.63;5012393;28;20044;-70
2021/03/08 11:20:30;;;;;;;13.05;6.70;;;;;;;8.01;45.16;101054.56;5009822;28;20068;-70
2021/03/08 11:23:04;;;;;;;9.38;5.35;;;;;;;7.82;47.23;101052.56;5009550;28;20129;-69
2021/03/08 11:25:40;;;;;;;10.30;6.80;;;;;;;7.94;46.48;101048.13;5011388;28;20300;-70
2021/03/08 11:28:16;;;;;;;10.43;6.40;;;;;;;7.77;46.36;101054.69;5010379;28;20034;-70
2021/03/08 11:30:48;;;;;;;11.52;6.28;;;;;;;7.67;47.22;101049.31;5011221;28;20038;-69
2021/03/08 11:33:13;;;;;;;8.25;5.53;;;;;;;7.63;47.39;101047.91;5000367;28;20038;-70
2021/03/08 11:35:40;;;;;;;11.18;6.05;;;;;;;7.73;46.69;101043.59;4990435;28;20062;-69